Teterboro Airport
KTEB : now visible

Airfield :











YOU CAN JOIN US ON...

 
LOGIN :

Register | Disclaimer

   EN    FR    IT 

 









Legend :    VFR   Marginal VFR   IFR   Intensive IFR   Very Intensive IFR
Visi :
Ceiling :
>= 8 km
>= 3000ft
5 to 8 km
1000 to 3000 ft
1500m to 5 km
500 to 1000 ft
800 to 1500m
200 to 500 ft
< 800m
< 200 ft
Symbols :   Thunderstorms  Fog  Heavy snow  Heavy precipitations  Wind > 20 kt







- Airport Elevation : 9 ft


KTEB - Teterboro

CURRENT METAR :
  • 171051Z 36004KT 10SM CLR 15/11 A3013 RMK AO2 SLP201 T01500111

EXPIRED METARs :
  • 170951Z 02004KT 10SM CLR 16/11 A3010 RMK AO2 SLP193 T01610111
  • 170851Z 36004KT 10SM CLR 16/12 A3008 RMK AO2 SLP187 T01610117 51004

TAF KTEB
Valid from the 17 at 08:00 until the 18 at 12:00 UTC


170826Z 1708/1812 03004KT P6SM FEW035 SCT050
FM171300 03009KT P6SM SKC
FM172300 05005KT P6SM SKC
FM180900 06003KT P6SM FEW050
No reported NOTAMs for that airfield.



MET'MAP, your aeronautical weather chart ! - Copyright ORBIFLY December 2007 - Disclaimer

ORBIFLY MET'MAP TEAM :

Programming & Development : Alexandra Zaïnal
Concept & Development : Baudouin d'Aumeries
Co-Development & Prog : Marc-Olivier Méhu
Technical & hardware support : Manuel Goepfert

Contact : metmap@orbifly.com




SOURCES & CREDITS :

   NOAA       Earth
Advisory